HEAT

Assiut International Airport

Assiut, Egypt
METAR HEAT 241100Z 34013KT CAVOK 32/19 Q1014 NOSIG
Observed Flight Rules
Sep-24 @ 11:00 UTC (33 minutes ago) Visual Flight Rules
Wind Visibility Clouds
340° at 13 knots 10,000+ meters
  • Clear skies
Temperatures Readings
Current 32°C / 90°F
Dewpoint 19°C / 66°F
Humidity 46%
Altimeter 29.94" Hg
Pressure 1014 hPa
Elevation 70
METAR HEAT 241100Z 34013KT CAVOK 32/19 Q1014 NOSIG
Observed Flight Rules
Sep-24 @ 11:00 UTC
(33 minutes ago)
VFR
Wind Visibility
340° at 13 knots 10,000+ meters
Clouds
  • Clear skies
Temperature Dewpoint
32°C / 90°F 19°C / 66°F
Humidity Altimeter Pressure
46% 29.94" Hg 1014 hPa